Time;durP1;ratioP1;P1;durP2;ratioP2;P2;SDS_P1;SDS_P2;PMS_P1;PMS_P2;Temp;Humidity;BMP_temperature;BMP_pressure;BME280_temperature;BME280_humidity;BME280_pressure;Samples;Min_cycle;Max_cycle;Signal;HPM_P1;HPM_P2
2021/05/02 00:00:44;;;;;;;8.73;4.10;;;9.50;99.90;;;;;;5054322;28;20208;-64
2021/05/02 00:03:10;;;;;;;7.68;4.00;;;9.50;99.90;;;;;;5056436;28;20209;-63
2021/05/02 00:05:38;;;;;;;8.25;4.35;;;9.50;99.90;;;;;;5063058;28;20522;-63
2021/05/02 00:08:05;;;;;;;11.23;5.63;;;9.50;99.90;;;;;;5059510;28;20213;-63
2021/05/02 00:10:33;;;;;;;5.75;4.57;;;9.60;99.90;;;;;;5056536;28;20209;-64
2021/05/02 00:13:00;;;;;;;4.97;4.43;;;9.50;99.90;;;;;;5052362;28;20212;-63
2021/05/02 00:15:28;;;;;;;10.82;7.10;;;9.50;99.90;;;;;;5056797;28;20225;-63
2021/05/02 00:17:56;;;;;;;5.35;3.45;;;9.50;99.90;;;;;;5053036;28;20219;-63
2021/05/02 00:20:25;;;;;;;6.35;3.40;;;9.60;99.90;;;;;;5053817;28;20458;-64
2021/05/02 00:22:54;;;;;;;5.97;5.47;;;9.60;99.90;;;;;;5064966;28;20216;-64
2021/05/02 00:25:27;;;;;;;6.53;4.50;;;9.60;99.90;;;;;;5059523;28;20237;-64
2021/05/02 00:27:54;;;;;;;5.78;4.60;;;9.50;99.90;;;;;;5068999;28;20218;-63
2021/05/02 00:30:23;;;;;;;6.28;4.28;;;9.60;99.90;;;;;;5054660;28;20208;-64
2021/05/02 00:32:51;;;;;;;7.35;4.57;;;9.60;99.90;;;;;;5057457;28;20212;-64
2021/05/02 00:35:20;;;;;;;5.85;5.18;;;9.60;99.90;;;;;;5056557;28;20233;-64
2021/05/02 00:37:47;;;;;;;3.50;2.90;;;9.60;99.90;;;;;;5040765;28;20550;-63
2021/05/02 00:40:34;;;;;;;5.13;4.22;;;9.60;99.90;;;;;;5048491;28;20228;-63
2021/05/02 00:43:07;;;;;;;8.02;5.53;;;9.60;99.90;;;;;;5058794;28;20208;-63
2021/05/02 00:46:02;;;;;;;9.85;8.35;;;9.60;99.90;;;;;;5054876;28;20223;-64
2021/05/02 00:48:36;;;;;;;9.05;8.43;;;9.50;99.90;;;;;;5056160;28;20225;-68
2021/05/02 00:51:06;;;;;;;9.30;3.63;;;9.50;99.90;;;;;;5064496;28;20212;-66
2021/05/02 00:53:53;;;;;;;8.00;6.82;;;9.30;99.90;;;;;;5051187;28;20241;-67
2021/05/02 00:56:29;;;;;;;8.30;3.97;;;9.20;99.90;;;;;;5052163;28;20224;-69
2021/05/02 00:59:03;;;;;;;6.72;5.03;;;9.20;99.90;;;;;;5056021;28;20230;-70
2021/05/02 01:01:38;;;;;;;4.00;3.60;;;9.10;99.90;;;;;;5056810;28;20670;-71
2021/05/02 01:04:06;;;;;;;7.00;5.30;;;9.10;99.90;;;;;;5053866;28;20390;-73
2021/05/02 01:06:33;;;;;;;5.03;3.67;;;9.00;99.90;;;;;;5052617;28;20234;-71
2021/05/02 01:09:02;;;;;;;4.90;4.10;;;9.00;99.90;;;;;;5052202;28;20211;-70
2021/05/02 01:11:30;;;;;;;9.18;8.32;;;9.00;99.90;;;;;;5060307;28;20211;-67
2021/05/02 01:13:59;;;;;;;5.15;4.50;;;8.90;99.90;;;;;;5060615;28;20645;-66
2021/05/02 01:16:28;;;;;;;8.63;4.88;;;8.80;99.90;;;;;;5058659;28;20534;-68
2021/05/02 01:18:56;;;;;;;4.43;3.72;;;8.80;99.90;;;;;;5060404;28;20257;-68
2021/05/02 01:21:31;;;;;;;7.65;4.93;;;8.80;99.90;;;;;;5069360;28;20435;-70
2021/05/02 01:23:59;;;;;;;9.27;7.97;;;8.70;99.90;;;;;;5062538;28;20199;-71
2021/05/02 01:26:26;;;;;;;6.57;5.97;;;8.60;99.90;;;;;;5062654;28;20207;-70
2021/05/02 01:28:55;;;;;;;7.28;5.20;;;8.70;99.90;;;;;;5078476;28;20208;-69
2021/05/02 01:31:22;;;;;;;6.55;3.80;;;8.60;99.90;;;;;;5067809;28;20210;-71
2021/05/02 01:33:50;;;;;;;6.70;5.47;;;8.60;99.90;;;;;;5060246;28;20207;-70
2021/05/02 01:36:20;;;;;;;4.68;4.30;;;8.60;99.90;;;;;;5062614;28;20222;-70
2021/05/02 01:38:49;;;;;;;8.07;5.20;;;8.50;99.90;;;;;;5054007;28;20212;-70
2021/05/02 01:41:16;;;;;;;9.23;7.22;;;8.60;99.90;;;;;;5060001;28;20515;-71
2021/05/02 01:43:43;;;;;;;9.77;6.60;;;8.60;99.90;;;;;;5069216;28;20226;-70
2021/05/02 01:46:14;;;;;;;9.10;7.60;;;8.60;99.90;;;;;;5068126;28;20556;-70
2021/05/02 01:48:41;;;;;;;6.15;3.50;;;8.60;99.90;;;;;;5060048;28;20204;-71
2021/05/02 01:51:14;;;;;;;5.75;4.20;;;8.60;99.90;;;;;;5059200;28;20204;-71
2021/05/02 01:53:41;;;;;;;3.78;3.47;;;8.50;99.90;;;;;;5066105;28;20238;-68
2021/05/02 01:56:11;;;;;;;9.93;5.28;;;8.50;99.90;;;;;;5060629;28;20561;-71
2021/05/02 01:58:38;;;;;;;7.90;5.50;;;8.50;99.90;;;;;;5059168;28;20208;-71
2021/05/02 02:01:07;;;;;;;6.72;4.85;;;8.70;99.90;;;;;;5070365;28;20685;-69
2021/05/02 02:03:34;;;;;;;8.60;5.13;;;8.60;99.90;;;;;;5073889;28;20270;-66
2021/05/02 02:06:02;;;;;;;6.75;3.85;;;8.50;99.90;;;;;;5048121;28;20212;-69
2021/05/02 02:08:29;;;;;;;9.30;5.75;;;8.50;99.90;;;;;;5048373;28;20215;-64
2021/05/02 02:10:56;;;;;;;8.10;5.72;;;8.40;99.90;;;;;;5047106;28;20209;-66
2021/05/02 02:13:23;;;;;;;5.68;4.18;;;8.40;99.90;;;;;;5076533;28;20206;-67
2021/05/02 02:15:50;;;;;;;7.43;5.50;;;8.40;99.90;;;;;;5046843;28;20527;-70
2021/05/02 02:18:17;;;;;;;8.48;5.70;;;8.40;99.90;;;;;;5065054;28;20209;-68
2021/05/02 02:20:53;;;;;;;6.22;5.25;;;8.40;99.90;;;;;;5068558;28;20208;-69
2021/05/02 02:23:31;;;;;;;8.15;5.45;;;8.40;99.90;;;;;;5058376;28;20289;-69
2021/05/02 02:26:11;;;;;;;8.07;5.82;;;8.40;99.90;;;;;;5058406;28;20199;-68
2021/05/02 02:28:38;;;;;;;6.03;4.45;;;8.40;99.90;;;;;;5052536;28;20212;-65
2021/05/02 02:31:09;;;;;;;6.47;5.10;;;8.30;99.90;;;;;;5069941;28;20211;-66
2021/05/02 02:33:39;;;;;;;5.80;4.70;;;8.30;99.90;;;;;;5059128;28;20215;-66
2021/05/02 02:36:06;;;;;;;7.18;5.63;;;8.40;99.90;;;;;;5073075;28;20227;-67
2021/05/02 02:38:35;;;;;;;6.38;5.03;;;8.30;99.90;;;;;;5064666;28;20507;-67
2021/05/02 02:41:02;;;;;;;11.25;8.55;;;8.40;99.90;;;;;;5049255;28;20200;-65
2021/05/02 02:43:34;;;;;;;8.82;4.80;;;8.40;99.90;;;;;;5055046;28;20223;-66
2021/05/02 02:46:10;;;;;;;9.02;7.18;;;8.40;99.90;;;;;;5053931;28;20238;-64
2021/05/02 02:48:40;;;;;;;8.60;4.28;;;8.40;99.90;;;;;;5057995;28;20215;-66
2021/05/02 02:51:12;;;;;;;9.15;6.97;;;8.40;99.90;;;;;;5052523;28;20208;-67
2021/05/02 02:53:42;;;;;;;6.05;5.50;;;8.40;99.90;;;;;;5063888;28;20611;-65
2021/05/02 02:56:13;;;;;;;9.52;6.15;;;8.40;99.90;;;;;;5062066;28;20246;-64
2021/05/02 02:58:48;;;;;;;8.60;6.43;;;8.40;99.90;;;;;;5049076;28;20427;-65
2021/05/02 03:01:15;;;;;;;6.50;4.53;;;8.40;99.90;;;;;;5065666;28;20217;-62
2021/05/02 03:03:43;;;;;;;8.40;6.35;;;8.40;99.90;;;;;;5057380;28;20203;-65
2021/05/02 03:06:11;;;;;;;11.05;6.00;;;8.40;99.90;;;;;;5067117;28;20211;-65
2021/05/02 03:08:40;;;;;;;11.88;7.68;;;8.40;99.90;;;;;;5056677;28;20209;-66
2021/05/02 03:11:08;;;;;;;8.63;5.80;;;8.40;99.90;;;;;;5064287;28;20210;-65
2021/05/02 03:13:36;;;;;;;8.70;5.40;;;8.50;99.90;;;;;;5059330;28;20218;-64
2021/05/02 03:16:03;;;;;;;8.88;5.78;;;8.50;99.90;;;;;;5056249;28;20379;-63
2021/05/02 03:18:41;;;;;;;12.18;6.95;;;8.50;99.90;;;;;;5063740;28;20227;-63
2021/05/02 03:21:11;;;;;;;13.05;6.18;;;8.40;99.90;;;;;;5059799;28;20727;-63
2021/05/02 03:23:42;;;;;;;6.50;5.88;;;8.40;99.90;;;;;;5063494;28;20204;-62
2021/05/02 03:26:11;;;;;;;8.60;5.00;;;8.40;99.90;;;;;;5063178;28;20222;-62
2021/05/02 03:28:46;;;;;;;6.68;4.78;;;8.30;99.90;;;;;;5065626;28;20402;-63
2021/05/02 03:31:15;;;;;;;10.63;7.68;;;8.40;99.90;;;;;;5056644;28;20199;-64
2021/05/02 03:33:47;;;;;;;6.97;4.88;;;8.40;99.90;;;;;;5052268;28;20210;-65
2021/05/02 03:36:45;;;;;;;8.20;6.50;;;8.40;99.90;;;;;;5046681;28;20564;-65
2021/05/02 03:39:12;;;;;;;12.73;6.47;;;8.50;99.90;;;;;;5050423;28;20618;-66
2021/05/02 03:41:39;;;;;;;6.80;5.97;;;8.50;99.90;;;;;;5048543;28;20238;-68
2021/05/02 03:44:06;;;;;;;5.28;3.65;;;8.50;99.90;;;;;;5057240;28;20507;-66
2021/05/02 03:46:33;;;;;;;8.77;4.43;;;8.50;99.90;;;;;;5056511;28;20426;-67
2021/05/02 03:49:07;;;;;;;7.20;5.65;;;8.50;99.90;;;;;;5049570;28;20205;-66
2021/05/02 03:51:39;;;;;;;13.68;7.75;;;8.50;99.90;;;;;;5056391;28;20208;-66
2021/05/02 03:54:07;;;;;;;5.93;4.85;;;8.40;99.90;;;;;;5049834;28;20243;-66
2021/05/02 03:56:41;;;;;;;5.20;4.60;;;8.50;99.90;;;;;;5053888;28;20227;-66
2021/05/02 03:59:17;;;;;;;3.95;3.63;;;8.50;99.90;;;;;;5055770;28;20389;-66
2021/05/02 04:01:52;;;;;;;4.25;3.97;;;8.50;99.90;;;;;;5050371;28;20207;-67
2021/05/02 04:04:22;;;;;;;4.97;2.30;;;8.50;99.90;;;;;;5053821;28;20230;-68
2021/05/02 04:06:49;;;;;;;5.63;5.13;;;8.40;99.90;;;;;;5050091;28;20213;-66
2021/05/02 04:09:17;;;;;;;6.10;4.25;;;8.50;99.90;;;;;;5052070;28;20209;-68
2021/05/02 04:11:44;;;;;;;4.03;3.35;;;8.50;99.90;;;;;;5057352;28;20631;-68
2021/05/02 04:14:13;;;;;;;2.55;2.35;;;8.50;99.90;;;;;;5057383;28;20214;-67
2021/05/02 04:16:40;;;;;;;3.55;3.25;;;8.40;99.90;;;;;;5051724;28;20592;-68
2021/05/02 04:19:09;;;;;;;3.63;1.95;;;8.50;99.90;;;;;;5059739;28;20207;-66
2021/05/02 04:21:37;;;;;;;2.60;2.35;;;8.50;99.90;;;;;;5051949;28;20205;-66
2021/05/02 04:24:05;;;;;;;4.03;3.67;;;8.50;99.90;;;;;;5050579;28;20258;-66
2021/05/02 04:26:32;;;;;;;6.43;5.85;;;8.50;99.90;;;;;;5053468;28;20218;-66
2021/05/02 04:28:59;;;;;;;4.53;4.15;;;8.60;99.90;;;;;;5052765;28;20212;-65
2021/05/02 04:31:25;;;;;;;4.82;4.22;;;8.60;99.90;;;;;;5055985;28;20207;-64
2021/05/02 04:33:52;;;;;;;6.68;6.07;;;8.50;99.90;;;;;;5053079;28;20507;-62
2021/05/02 04:36:19;;;;;;;5.95;3.45;;;8.40;99.90;;;;;;5054209;28;20253;-64
2021/05/02 04:38:45;;;;;;;2.70;2.35;;;8.30;99.90;;;;;;5058352;28;20298;-63
2021/05/02 04:41:11;;;;;;;4.10;3.60;;;8.30;99.90;;;;;;5053249;28;20207;-63
2021/05/02 04:43:38;;;;;;;4.10;2.95;;;8.30;99.90;;;;;;5060422;28;20204;-64
2021/05/02 04:46:05;;;;;;;2.63;2.45;;;8.30;99.90;;;;;;5060569;28;20265;-63
2021/05/02 04:48:31;;;;;;;3.72;3.35;;;8.30;99.90;;;;;;5051872;28;20200;-67
2021/05/02 04:50:58;;;;;;;2.88;2.42;;;8.30;99.90;;;;;;5052321;28;20217;-63
2021/05/02 04:53:25;;;;;;;5.15;4.38;;;8.20;99.90;;;;;;5059856;28;20239;-64
2021/05/02 04:55:51;;;;;;;1.58;1.48;;;8.20;99.90;;;;;;5060815;28;20223;-65
2021/05/02 04:58:18;;;;;;;3.35;3.10;;;8.20;99.90;;;;;;5052354;28;20217;-66
2021/05/02 05:00:44;;;;;;;2.53;1.75;;;8.10;99.90;;;;;;5055257;28;20208;-64
2021/05/02 05:03:11;;;;;;;6.25;3.03;;;8.10;99.90;;;;;;5057609;28;20207;-63
2021/05/02 05:05:37;;;;;;;2.25;2.05;;;8.00;99.90;;;;;;5057931;28;20211;-64
2021/05/02 05:08:05;;;;;;;2.13;2.03;;;8.00;99.90;;;;;;5054475;28;20456;-63
2021/05/02 05:10:31;;;;;;;3.42;2.83;;;8.00;99.90;;;;;;5060244;28;20212;-62
2021/05/02 05:12:58;;;;;;;1.25;1.10;;;8.00;99.90;;;;;;5060221;28;20644;-62
2021/05/02 05:15:25;;;;;;;1.15;0.68;;;8.00;99.90;;;;;;5060482;28;20238;-61
2021/05/02 05:17:51;;;;;;;1.58;1.48;;;7.90;99.90;;;;;;5054345;28;20212;-61
2021/05/02 05:20:18;;;;;;;0.60;0.60;;;7.90;99.90;;;;;;5059979;28;20210;-60
2021/05/02 05:22:45;;;;;;;0.65;0.65;;;7.90;99.90;;;;;;5056892;28;20211;-61
2021/05/02 05:25:12;;;;;;;0.82;0.82;;;7.90;99.90;;;;;;5055949;28;20210;-61
2021/05/02 05:27:39;;;;;;;1.23;1.23;;;7.90;99.90;;;;;;5060105;28;20210;-61
2021/05/02 05:30:07;;;;;;;1.48;1.48;;;7.90;99.90;;;;;;5054681;28;20219;-61
2021/05/02 05:32:33;;;;;;;0.50;0.50;;;7.90;99.90;;;;;;5053089;28;20210;-60
2021/05/02 05:35:00;;;;;;;4.95;3.17;;;7.90;99.90;;;;;;5062978;28;20506;-61
2021/05/02 05:37:26;;;;;;;0.60;0.60;;;7.90;99.90;;;;;;5052089;28;20654;-61
2021/05/02 05:39:53;;;;;;;0.93;0.93;;;7.90;99.90;;;;;;5058284;28;20204;-62
2021/05/02 05:42:20;;;;;;;0.30;0.30;;;7.90;99.90;;;;;;5060227;28;20208;-61
2021/05/02 05:44:46;;;;;;;1.17;1.13;;;7.80;99.90;;;;;;5058842;28;20207;-62
2021/05/02 05:47:13;;;;;;;0.98;0.98;;;7.90;99.90;;;;;;5053857;28;20227;-61
2021/05/02 05:49:41;;;;;;;2.08;1.63;;;7.90;99.90;;;;;;5061834;28;20209;-61
2021/05/02 05:52:12;;;;;;;1.17;1.05;;;7.90;99.90;;;;;;5046216;28;20774;-60
2021/05/02 05:54:41;;;;;;;2.58;1.42;;;7.90;99.90;;;;;;5057752;28;20213;-61
2021/05/02 05:57:08;;;;;;;0.80;0.60;;;7.90;99.90;;;;;;5066876;28;20227;-61
2021/05/02 05:59:36;;;;;;;3.33;3.13;;;7.90;99.90;;;;;;5059025;28;20214;-60
2021/05/02 06:02:03;;;;;;;1.00;1.00;;;7.90;99.90;;;;;;5050471;28;20283;-62
2021/05/02 06:04:29;;;;;;;0.50;0.50;;;8.60;99.90;;;;;;5059347;28;20227;-63
2021/05/02 06:06:56;;;;;;;0.40;0.40;;;7.80;99.90;;;;;;5058475;28;20221;-60
2021/05/02 06:09:23;;;;;;;1.33;0.82;;;7.80;99.90;;;;;;5051927;28;20208;-63
2021/05/02 06:11:50;;;;;;;0.50;0.40;;;7.90;99.90;;;;;;5059587;28;20422;-62
2021/05/02 06:14:17;;;;;;;0.77;0.77;;;7.90;99.90;;;;;;5060091;28;20622;-62
2021/05/02 06:16:43;;;;;;;1.45;1.33;;;8.70;99.90;;;;;;5055200;28;20242;-63
2021/05/02 06:19:10;;;;;;;2.05;1.20;;;7.80;99.90;;;;;;5059302;28;20211;-61
2021/05/02 06:21:36;;;;;;;0.47;0.47;;;7.80;99.90;;;;;;5059460;28;20226;-62
2021/05/02 06:24:05;;;;;;;1.00;0.90;;;7.80;99.90;;;;;;5056532;28;20218;-62
2021/05/02 06:26:31;;;;;;;0.93;0.77;;;7.80;99.90;;;;;;5051296;28;20207;-62
2021/05/02 06:28:58;;;;;;;0.88;0.55;;;7.80;99.90;;;;;;5058761;28;20242;-61
2021/05/02 06:31:25;;;;;;;0.98;0.98;;;7.80;99.90;;;;;;5054577;28;20398;-61
2021/05/02 06:33:52;;;;;;;0.50;0.50;;;7.70;99.90;;;;;;5060496;28;20267;-62
2021/05/02 06:36:18;;;;;;;1.05;1.05;;;7.80;99.90;;;;;;5074482;28;20230;-61
2021/05/02 06:38:45;;;;;;;0.88;0.88;;;7.70;99.90;;;;;;5072445;28;20493;-61
2021/05/02 06:41:11;;;;;;;0.60;0.60;;;7.70;99.90;;;;;;5065656;28;20223;-61
2021/05/02 06:43:38;;;;;;;2.05;0.60;;;7.70;99.90;;;;;;5048886;28;20205;-62
2021/05/02 06:46:04;;;;;;;0.60;0.50;;;7.80;99.90;;;;;;5056469;28;20234;-61
2021/05/02 06:48:31;;;;;;;0.30;0.30;;;7.80;99.90;;;;;;5053167;28;20251;-62
2021/05/02 06:50:58;;;;;;;4.25;1.05;;;7.80;99.90;;;;;;5056364;28;20493;-61
2021/05/02 06:53:25;;;;;;;1.00;0.85;;;7.70;99.90;;;;;;5058318;28;20470;-60
2021/05/02 06:55:52;;;;;;;0.68;0.68;;;7.70;99.90;;;;;;5058071;28;20385;-61
2021/05/02 06:58:18;;;;;;;0.40;0.40;;;7.70;99.90;;;;;;5056044;28;20203;-61
2021/05/02 07:00:45;;;;;;;0.60;0.60;;;7.70;99.90;;;;;;5056398;28;20202;-61
2021/05/02 07:03:11;;;;;;;0.60;0.60;;;7.80;99.90;;;;;;5059640;28;20204;-62
2021/05/02 07:05:42;;;;;;;0.90;0.90;;;7.70;99.90;;;;;;5060696;28;20218;-63
2021/05/02 07:08:08;;;;;;;0.63;0.63;;;7.80;99.90;;;;;;5055608;28;20203;-61
2021/05/02 07:10:35;;;;;;;0.50;0.50;;;7.80;99.90;;;;;;5058381;28;20509;-61
2021/05/02 07:13:01;;;;;;;0.85;0.85;;;7.90;99.90;;;;;;5057402;28;20491;-63
2021/05/02 07:15:28;;;;;;;0.47;0.47;;;7.80;99.90;;;;;;5055155;28;20207;-60
2021/05/02 07:17:55;;;;;;;0.38;0.38;;;7.80;99.90;;;;;;5060888;28;20216;-60
2021/05/02 07:20:22;;;;;;;0.55;0.55;;;7.80;99.90;;;;;;5057338;28;20208;-62
2021/05/02 07:22:53;;;;;;;0.60;0.60;;;7.90;99.90;;;;;;5054290;28;20212;-61
2021/05/02 07:25:23;;;;;;;0.70;0.70;;;7.90;99.90;;;;;;5053828;28;20195;-62
2021/05/02 07:27:51;;;;;;;0.30;0.30;;;8.00;99.90;;;;;;5040297;28;20212;-62
2021/05/02 07:30:19;;;;;;;0.60;0.60;;;8.00;99.90;;;;;;5043333;28;20247;-62
2021/05/02 07:32:49;;;;;;;0.90;0.90;;;8.00;99.90;;;;;;5039665;28;20265;-61
2021/05/02 07:35:16;;;;;;;0.47;0.47;;;8.00;99.90;;;;;;5047432;28;20532;-60
2021/05/02 07:37:42;;;;;;;1.42;0.90;;;7.90;99.90;;;;;;5043043;28;20203;-60
2021/05/02 07:40:10;;;;;;;1.55;1.45;;;7.90;99.90;;;;;;5043092;28;20211;-62
2021/05/02 07:42:38;;;;;;;0.40;0.40;;;7.90;99.90;;;;;;5042593;28;20208;-65
2021/05/02 07:45:06;;;;;;;1.20;0.63;;;7.90;99.90;;;;;;5044027;28;20203;-60
2021/05/02 07:47:35;;;;;;;0.50;0.50;;;7.90;99.90;;;;;;5042353;28;20263;-61
2021/05/02 07:50:04;;;;;;;0.90;0.90;;;7.90;99.90;;;;;;5036352;28;20289;-61
2021/05/02 07:52:30;;;;;;;1.70;0.82;;;7.90;99.90;;;;;;5039244;28;20239;-62
2021/05/02 07:54:57;;;;;;;1.92;1.77;;;8.00;99.90;;;;;;5043073;28;20204;-61
2021/05/02 07:57:23;;;;;;;0.50;0.50;;;7.90;99.90;;;;;;5041697;28;20238;-62
2021/05/02 07:59:53;;;;;;;0.88;0.88;;;7.90;99.90;;;;;;5040347;28;20211;-61
2021/05/02 08:02:22;;;;;;;1.60;1.52;;;8.00;99.90;;;;;;5040809;28;20208;-62
2021/05/02 08:04:49;;;;;;;0.98;0.98;;;8.00;99.90;;;;;;5042142;28;20207;-62
2021/05/02 08:07:15;;;;;;;0.60;0.60;;;8.00;99.90;;;;;;5040236;28;20213;-61
2021/05/02 08:09:42;;;;;;;0.60;0.60;;;8.10;99.90;;;;;;5039809;28;20250;-62
2021/05/02 08:12:09;;;;;;;0.73;0.73;;;8.00;99.90;;;;;;5044188;28;20216;-61
2021/05/02 08:14:37;;;;;;;0.57;0.57;;;8.10;99.90;;;;;;5046175;28;20196;-63
2021/05/02 08:17:04;;;;;;;1.10;0.93;;;8.10;99.90;;;;;;5046133;28;20228;-60
2021/05/02 08:19:31;;;;;;;1.27;1.17;;;8.00;99.90;;;;;;5039717;28;20207;-60
2021/05/02 08:22:02;;;;;;;1.17;1.17;;;8.10;99.90;;;;;;5037507;28;20212;-61
2021/05/02 08:24:29;;;;;;;0.40;0.40;;;8.10;99.90;;;;;;5039589;28;20226;-60
2021/05/02 08:26:56;;;;;;;2.45;2.35;;;8.10;99.90;;;;;;5044475;28;20511;-62
2021/05/02 08:29:23;;;;;;;1.40;1.20;;;8.20;99.90;;;;;;5040136;28;20235;-60
2021/05/02 08:31:50;;;;;;;0.80;0.80;;;8.10;99.90;;;;;;5043383;28;20806;-62
2021/05/02 08:34:16;;;;;;;0.60;0.60;;;8.10;99.90;;;;;;5045539;28;20216;-62
2021/05/02 08:36:43;;;;;;;0.30;0.30;;;8.20;99.90;;;;;;5043232;28;20415;-62
2021/05/02 08:39:09;;;;;;;0.60;0.60;;;8.20;99.90;;;;;;5041237;28;20204;-62
2021/05/02 08:41:36;;;;;;;0.40;0.40;;;7.20;99.90;;;;;;5046236;28;20398;-62
2021/05/02 08:44:03;;;;;;;0.68;0.68;;;8.30;99.90;;;;;;5051084;28;20532;-62
2021/05/02 08:46:30;;;;;;;0.65;0.65;;;8.30;99.90;;;;;;5057619;28;20262;-62
2021/05/02 08:48:57;;;;;;;1.35;1.25;;;8.30;99.90;;;;;;5056117;28;20383;-63
2021/05/02 08:51:24;;;;;;;0.30;0.30;;;8.40;99.90;;;;;;5053768;28;20210;-62
2021/05/02 08:53:50;;;;;;;0.70;0.70;;;8.40;99.90;;;;;;5059756;28;20556;-63
2021/05/02 08:56:17;;;;;;;0.50;0.50;;;8.40;99.90;;;;;;5056875;28;20232;-62
2021/05/02 08:58:44;;;;;;;0.47;0.47;;;8.50;99.90;;;;;;5057662;28;20244;-62
2021/05/02 09:01:11;;;;;;;0.40;0.40;;;8.60;99.90;;;;;;5048719;28;20209;-62
2021/05/02 09:03:45;;;;;;;0.30;0.30;;;8.60;99.90;;;;;;5056609;28;20774;-62
2021/05/02 09:06:18;;;;;;;0.77;0.77;;;8.50;99.90;;;;;;5056782;28;20505;-61
2021/05/02 09:08:49;;;;;;;0.30;0.30;;;8.50;99.90;;;;;;5045390;28;20505;-61
2021/05/02 09:11:28;;;;;;;3.90;1.77;;;8.50;99.90;;;;;;5055846;28;20214;-61
2021/05/02 09:13:55;;;;;;;1.00;1.00;;;8.40;99.90;;;;;;5053251;28;20462;-61
2021/05/02 09:16:21;;;;;;;0.93;0.90;;;8.40;99.90;;;;;;5056018;28;20238;-61
2021/05/02 09:18:49;;;;;;;0.77;0.60;;;8.50;99.90;;;;;;5054282;28;20271;-62
2021/05/02 09:21:17;;;;;;;0.40;0.40;;;8.50;99.90;;;;;;5052030;28;20207;-62
2021/05/02 09:23:44;;;;;;;0.30;0.30;;;8.50;99.90;;;;;;5056964;28;20210;-62
2021/05/02 09:26:31;;;;;;;1.10;1.10;;;8.40;99.90;;;;;;5056816;28;20215;-63
2021/05/02 09:29:04;;;;;;;0.50;0.50;;;8.40;99.90;;;;;;5044534;28;20204;-63
2021/05/02 09:31:33;;;;;;;0.30;0.30;;;8.40;99.90;;;;;;5052586;28;20250;-63
2021/05/02 09:34:13;;;;;;;0.30;0.30;;;8.30;99.90;;;;;;5059139;28;20215;-63
2021/05/02 09:37:10;;;;;;;0.82;0.52;;;8.30;99.90;;;;;;5047568;28;20231;-64
2021/05/02 09:39:41;;;;;;;0.55;0.55;;;8.30;99.90;;;;;;5054580;28;20522;-63
2021/05/02 09:42:08;;;;;;;1.02;0.50;;;8.30;99.90;;;;;;5056149;28;20207;-64
2021/05/02 09:44:43;;;;;;;0.45;0.45;;;8.30;99.90;;;;;;5059645;28;20271;-63
2021/05/02 09:47:24;;;;;;;0.65;0.65;;;8.30;99.90;;;;;;5055947;28;20223;-63
2021/05/02 09:50:14;;;;;;;0.30;0.30;;;8.30;99.90;;;;;;5058166;28;20221;-65
2021/05/02 09:53:06;;;;;;;0.40;0.40;;;8.50;99.90;;;;;;5049141;28;20236;-64
2021/05/02 09:55:36;;;;;;;0.30;0.30;;;8.60;99.90;;;;;;5048751;28;20492;-65
2021/05/02 09:58:15;;;;;;;0.40;0.40;;;8.50;99.90;;;;;;5054629;28;20204;-65
2021/05/02 10:00:44;;;;;;;0.93;0.93;;;8.60;99.90;;;;;;5064879;28;20580;-66
2021/05/02 10:03:13;;;;;;;0.30;0.30;;;8.70;99.90;;;;;;5053370;28;20230;-63
2021/05/02 10:06:11;;;;;;;0.68;0.68;;;8.70;99.90;;;;;;5058772;28;21260;-64
2021/05/02 10:08:40;;;;;;;0.30;0.30;;;8.50;99.90;;;;;;5054050;28;20252;-65
2021/05/02 10:11:11;;;;;;;0.60;0.60;;;8.50;99.90;;;;;;5042780;28;20441;-66
2021/05/02 10:13:39;;;;;;;0.30;0.30;;;8.50;99.90;;;;;;5042958;28;20560;-66
2021/05/02 10:16:07;;;;;;;0.30;0.30;;;8.40;99.90;;;;;;5044691;28;20267;-66
2021/05/02 10:18:36;;;;;;;0.30;0.30;;;8.40;99.90;;;;;;5042139;28;20270;-67
2021/05/02 10:21:05;;;;;;;0.30;0.30;;;8.40;99.90;;;;;;5045576;28;20204;-68
2021/05/02 10:23:32;;;;;;;0.45;0.45;;;8.40;99.90;;;;;;5053846;28;20251;-67
2021/05/02 10:25:59;;;;;;;0.50;0.50;;;8.40;99.90;;;;;;5046557;28;20217;-67
2021/05/02 10:28:30;;;;;;;1.33;0.75;;;8.50;99.90;;;;;;5046050;28;20212;-68
2021/05/02 10:31:02;;;;;;;0.90;0.63;;;8.50;99.90;;;;;;5041815;28;20210;-66
2021/05/02 10:33:41;;;;;;;0.35;0.35;;;8.50;99.90;;;;;;5040009;28;20235;-65
2021/05/02 10:36:12;;;;;;;0.40;0.40;;;8.50;99.90;;;;;;5046992;28;20238;-66
2021/05/02 10:38:48;;;;;;;0.40;0.40;;;8.50;99.90;;;;;;5038922;28;20214;-66
2021/05/02 10:41:28;;;;;;;0.30;0.30;;;8.50;99.90;;;;;;5040997;28;20216;-65
2021/05/02 10:44:11;;;;;;;1.73;1.55;;;8.40;99.90;;;;;;5044187;28;20204;-65
2021/05/02 10:46:41;;;;;;;17.10;1.50;;;8.40;99.90;;;;;;5044874;28;20224;-64
2021/05/02 10:49:09;;;;;;;0.80;0.70;;;8.40;99.90;;;;;;5043073;28;20204;-66
2021/05/02 10:51:35;;;;;;;0.40;0.40;;;8.30;99.90;;;;;;5044497;28;20204;-65
2021/05/02 10:54:03;;;;;;;0.30;0.30;;;8.30;99.90;;;;;;5045013;28;20292;-64
2021/05/02 10:56:44;;;;;;;1.40;1.30;;;8.20;99.90;;;;;;5043506;28;20254;-64
2021/05/02 10:59:11;;;;;;;1.02;1.02;;;8.20;99.90;;;;;;5042662;28;20216;-65
2021/05/02 11:01:38;;;;;;;0.47;0.47;;;8.20;99.90;;;;;;5043457;28;20509;-64
2021/05/02 11:04:05;;;;;;;0.30;0.30;;;8.20;99.90;;;;;;5041953;28;20339;-64
2021/05/02 11:06:38;;;;;;;0.30;0.30;;;8.10;99.90;;;;;;5052208;28;20248;-64
2021/05/02 11:09:06;;;;;;;4.55;1.58;;;8.00;99.90;;;;;;5039996;28;20192;-63
2021/05/02 11:11:38;;;;;;;0.50;0.50;;;8.00;99.90;;;;;;5040713;28;20297;-63
2021/05/02 11:14:14;;;;;;;0.30;0.30;;;7.90;99.90;;;;;;5044254;28;20226;-63
2021/05/02 11:17:16;;;;;;;0.30;0.30;;;7.80;99.90;;;;;;5042458;28;20244;-63
2021/05/02 11:19:43;;;;;;;0.30;0.30;;;7.80;99.90;;;;;;5044187;28;20300;-64
2021/05/02 11:22:11;;;;;;;0.60;0.60;;;7.70;99.90;;;;;;5040939;28;20451;-65
2021/05/02 11:24:46;;;;;;;0.30;0.30;;;7.60;99.90;;;;;;5042411;28;20263;-65
2021/05/02 11:27:40;;;;;;;1.15;1.00;;;7.60;99.90;;;;;;5060782;28;20211;-65
2021/05/02 11:30:12;;;;;;;0.65;0.65;;;7.60;99.90;;;;;;5049972;28;20204;-65
2021/05/02 11:32:43;;;;;;;0.68;0.68;;;7.70;99.90;;;;;;5047083;28;20205;-65
2021/05/02 11:35:13;;;;;;;0.40;0.40;;;7.80;99.90;;;;;;5038159;28;20562;-65
2021/05/02 11:38:03;;;;;;;0.30;0.30;;;7.80;99.90;;;;;;5045351;28;20234;-66
2021/05/02 11:40:32;;;;;;;1.08;0.75;;;7.90;99.90;;;;;;5040355;28;20223;-66
2021/05/02 11:43:11;;;;;;;0.30;0.30;;;7.90;99.90;;;;;;5049429;28;20294;-66
2021/05/02 11:45:59;;;;;;;0.30;0.30;;;7.90;99.90;;;;;;5045438;28;20199;-66
2021/05/02 11:48:38;;;;;;;0.73;0.70;;;7.80;99.90;;;;;;5037905;28;20448;-64
2021/05/02 11:51:14;;;;;;;0.43;0.43;;;7.90;99.90;;;;;;5041432;28;20203;-64
2021/05/02 11:53:47;;;;;;;0.30;0.30;;;7.90;99.90;;;;;;5035862;28;20372;-65
2021/05/02 11:56:20;;;;;;;0.40;0.40;;;8.00;99.90;;;;;;5041361;28;20232;-64
2021/05/02 11:58:49;;;;;;;1.05;0.95;;;8.10;99.90;;;;;;5041939;28;20209;-64
2021/05/02 12:01:21;;;;;;;0.40;0.30;;;8.10;99.90;;;;;;5044834;28;20208;-64
2021/05/02 12:03:50;;;;;;;0.30;0.30;;;8.10;99.90;;;;;;5042904;28;20212;-64
2021/05/02 12:06:28;;;;;;;0.43;0.43;;;8.10;99.90;;;;;;5047207;28;20207;-65
2021/05/02 12:08:56;;;;;;;0.32;0.32;;;8.20;99.90;;;;;;5047092;28;20590;-65
2021/05/02 12:11:25;;;;;;;1.08;0.98;;;8.10;99.90;;;;;;5047883;28;20211;-65
2021/05/02 12:13:54;;;;;;;1.02;1.02;;;8.00;99.90;;;;;;5054296;28;20212;-66
2021/05/02 12:16:22;;;;;;;0.30;0.30;;;7.80;99.90;;;;;;5044290;28;20406;-65
2021/05/02 12:19:03;;;;;;;0.30;0.30;;;7.80;99.90;;;;;;5056102;28;20513;-65
2021/05/02 12:21:45;;;;;;;0.30;0.30;;;7.80;99.90;;;;;;5059595;28;20542;-64
2021/05/02 12:24:26;;;;;;;0.30;0.30;;;7.90;99.90;;;;;;5051192;28;20207;-64
2021/05/02 12:26:59;;;;;;;0.35;0.35;;;7.90;99.90;;;;;;5050348;28;20246;-64
2021/05/02 12:29:26;;;;;;;0.30;0.30;;;7.90;99.90;;;;;;5058256;28;20225;-65
2021/05/02 12:31:55;;;;;;;0.30;0.30;;;7.90;99.90;;;;;;5054588;28;20218;-66
2021/05/02 12:34:27;;;;;;;0.30;0.30;;;8.00;99.90;;;;;;5038236;28;20207;-65
2021/05/02 12:36:58;;;;;;;1.13;1.02;;;7.90;99.90;;;;;;5046956;28;20230;-65
2021/05/02 12:39:33;;;;;;;0.30;0.30;;;7.90;99.90;;;;;;5056758;28;20505;-65
2021/05/02 12:42:00;;;;;;;0.30;0.30;;;7.90;99.90;;;;;;5050141;28;20368;-65
2021/05/02 12:44:28;;;;;;;0.75;0.75;;;8.00;99.90;;;;;;5051301;28;20218;-66
2021/05/02 12:47:00;;;;;;;0.30;0.30;;;8.10;99.90;;;;;;5055176;28;20304;-65
2021/05/02 12:49:33;;;;;;;0.30;0.30;;;8.10;99.90;;;;;;5051143;28;20213;-65
2021/05/02 12:52:02;;;;;;;0.30;0.30;;;8.20;99.90;;;;;;5048458;28;20214;-66
2021/05/02 12:54:31;;;;;;;0.40;0.40;;;8.30;99.90;;;;;;5056538;28;20326;-64
2021/05/02 12:57:15;;;;;;;0.30;0.30;;;8.30;99.90;;;;;;5047700;28;20241;-66
2021/05/02 12:59:53;;;;;;;0.93;0.50;;;8.10;99.90;;;;;;5045715;28;20577;-65
2021/05/02 13:02:25;;;;;;;0.30;0.30;;;8.00;99.90;;;;;;5050868;28;20201;-65
2021/05/02 13:05:02;;;;;;;0.30;0.30;;;7.90;99.90;;;;;;5049433;28;20208;-65
2021/05/02 13:07:40;;;;;;;0.30;0.30;;;7.80;99.90;;;;;;5059753;28;20418;-65
2021/05/02 13:10:22;;;;;;;0.30;0.30;;;7.80;99.90;;;;;;5061818;28;20229;-65
2021/05/02 13:12:59;;;;;;;0.30;0.30;;;7.80;99.90;;;;;;5062683;28;20261;-66